Time;durP1;ratioP1;P1;durP2;ratioP2;P2;SDS_P1;SDS_P2;PMS_P1;PMS_P2;Temp;Humidity;BMP_temperature;BMP_pressure;BME280_temperature;BME280_humidity;BME280_pressure;Samples;Min_cycle;Max_cycle;Signal;HPM_P1;HPM_P2
2021/10/20 00:02:20;;;;;;;;;;;15.40;99.90;;;;;;5097256;28;19953;-73
2021/10/20 00:04:46;;;;;;;;;;;15.40;99.90;;;;;;5084019;28;19952;-74
2021/10/20 00:07:13;;;;;;;;;;;15.40;99.90;;;;;;5098044;28;20045;-74
2021/10/20 00:09:41;;;;;;;;;;;15.30;99.90;;;;;;5088042;28;19956;-74
2021/10/20 00:12:08;;;;;;;;;;;15.40;99.90;;;;;;5086119;28;19969;-73
2021/10/20 00:14:34;;;;;;;;;;;15.30;99.90;;;;;;5087606;28;19969;-74
2021/10/20 00:17:01;;;;;;;;;;;15.30;99.90;;;;;;5087767;28;19969;-75
2021/10/20 00:19:28;;;;;;;;;;;15.30;99.90;;;;;;5086428;28;20420;-75
2021/10/20 00:21:56;;;;;;;;;;;15.30;99.90;;;;;;5087138;28;20493;-74
2021/10/20 00:24:23;;;;;;;;;;;15.30;99.90;;;;;;5084387;28;20641;-75
2021/10/20 00:26:51;;;;;;;;;;;15.30;99.90;;;;;;5090356;28;19958;-75
2021/10/20 00:29:17;;;;;;;;;;;15.30;99.90;;;;;;5087884;28;19954;-75
2021/10/20 00:31:44;;;;;;;;;;;15.30;99.90;;;;;;5092034;28;20417;-75
2021/10/20 00:34:11;;;;;;;;;;;15.20;99.90;;;;;;5086776;28;20075;-75
2021/10/20 00:36:37;;;;;;;;;;;15.20;99.90;;;;;;5092869;28;19956;-74
2021/10/20 00:39:04;;;;;;;;;;;15.20;99.90;;;;;;5086861;28;19957;-73
2021/10/20 00:41:31;;;;;;;;;;;15.20;99.90;;;;;;5096976;28;19964;-73
2021/10/20 00:43:59;;;;;;;;;;;15.30;99.90;;;;;;5089022;28;19954;-74
2021/10/20 00:46:26;;;;;;;;;;;15.30;99.90;;;;;;5093518;28;19964;-75
2021/10/20 00:48:53;;;;;;;;;;;15.30;99.90;;;;;;5107262;28;19950;-74
2021/10/20 00:51:25;;;;;;;;;;;15.30;99.90;;;;;;5094164;28;19968;-74
2021/10/20 00:53:51;;;;;;;;;;;15.30;99.90;;;;;;5086218;28;20368;-74
2021/10/20 00:56:18;;;;;;;;;;;15.30;99.90;;;;;;5089648;28;19963;-75
2021/10/20 00:58:45;;;;;;;;;;;15.20;99.90;;;;;;5085309;28;19979;-74
2021/10/20 01:01:13;;;;;;;;;;;15.30;99.90;;;;;;5099191;28;19965;-74
2021/10/20 01:03:39;;;;;;;;;;;15.30;99.90;;;;;;5088520;28;19968;-74
2021/10/20 01:06:06;;;;;;;;;;;15.20;99.90;;;;;;5100353;28;19954;-74
2021/10/20 01:08:33;;;;;;;;;;;15.20;99.90;;;;;;5090097;28;19959;-75
2021/10/20 01:10:59;;;;;;;;;;;15.20;99.90;;;;;;5084992;28;19953;-74
2021/10/20 01:13:26;;;;;;;;;;;15.20;99.90;;;;;;5091008;28;19981;-74
2021/10/20 01:15:53;;;;;;;;;;;15.20;99.90;;;;;;5088377;28;19964;-74
2021/10/20 01:18:21;;;;;;;;;;;15.20;99.90;;;;;;5093839;28;19962;-75
2021/10/20 01:20:51;;;;;;;;;;;15.20;99.90;;;;;;5090163;28;20415;-74
2021/10/20 01:23:19;;;;;;;;;;;15.20;99.90;;;;;;5082926;28;19959;-74
2021/10/20 01:25:46;;;;;;;;;;;15.30;99.90;;;;;;5089452;28;19963;-75
2021/10/20 01:28:13;;;;;;;;;;;15.40;99.90;;;;;;5095234;28;20400;-74
2021/10/20 01:30:39;;;;;;;;;;;15.40;99.90;;;;;;5099564;28;19979;-75
2021/10/20 01:33:06;;;;;;;;;;;15.40;99.90;;;;;;5094633;28;20328;-75
2021/10/20 01:35:33;;;;;;;;;;;15.40;99.90;;;;;;5089336;28;19969;-75
2021/10/20 01:37:59;;;;;;;;;;;15.50;99.90;;;;;;5094052;28;19960;-75
2021/10/20 01:40:28;;;;;;;;;;;15.50;99.90;;;;;;5093599;28;19957;-76
2021/10/20 01:42:54;;;;;;;;;;;15.60;99.90;;;;;;5096876;28;19954;-75
2021/10/20 01:45:21;;;;;;;;;;;15.60;99.90;;;;;;5086812;28;19959;-75
2021/10/20 01:47:48;;;;;;;;;;;15.60;99.90;;;;;;5097315;28;19960;-74
2021/10/20 01:50:15;;;;;;;;;;;15.70;99.90;;;;;;5090199;28;19958;-74
2021/10/20 01:52:42;;;;;;;;;;;15.70;99.90;;;;;;5087466;28;19972;-75
2021/10/20 01:55:10;;;;;;;;;;;15.70;99.90;;;;;;5088821;28;19948;-75
2021/10/20 01:57:38;;;;;;;;;;;15.80;99.90;;;;;;5103844;28;19963;-74
2021/10/20 02:00:05;;;;;;;;;;;15.80;99.90;;;;;;5084748;28;20324;-75
2021/10/20 02:02:32;;;;;;;;;;;15.80;99.90;;;;;;5088413;28;19962;-75
2021/10/20 02:04:59;;;;;;;;;;;15.80;99.90;;;;;;5094810;28;19954;-75
2021/10/20 02:07:25;;;;;;;;;;;15.80;99.90;;;;;;5086772;28;22673;-75
2021/10/20 02:09:52;;;;;;;;;;;15.80;99.90;;;;;;5093657;28;19954;-75
2021/10/20 02:12:18;;;;;;;;;;;15.80;99.90;;;;;;5096396;28;19962;-74
2021/10/20 02:14:46;;;;;;;;;;;15.70;99.90;;;;;;5089643;28;20079;-75
2021/10/20 02:17:13;;;;;;;;;;;15.70;99.90;;;;;;5096174;28;19956;-75
2021/10/20 02:19:40;;;;;;;;;;;15.70;99.90;;;;;;5090720;28;20053;-74
2021/10/20 02:22:06;;;;;;;;;;;15.70;99.90;;;;;;5089970;28;20322;-75
2021/10/20 02:24:33;;;;;;;;;;;15.70;99.90;;;;;;5086784;28;19976;-75
2021/10/20 02:27:00;;;;;;;;;;;15.70;99.90;;;;;;5093608;28;19956;-74
2021/10/20 02:29:27;;;;;;;;;;;15.60;99.90;;;;;;5091336;28;19959;-74
2021/10/20 02:31:55;;;;;;;;;;;15.60;99.90;;;;;;5094516;28;20520;-75
2021/10/20 02:34:22;;;;;;;;;;;15.50;99.90;;;;;;5086486;28;19984;-74
2021/10/20 02:36:49;;;;;;;;;;;15.50;99.90;;;;;;5091328;28;19999;-74
2021/10/20 02:39:16;;;;;;;;;;;15.50;99.90;;;;;;5087696;28;19958;-75
2021/10/20 02:41:42;;;;;;;;;;;15.50;99.90;;;;;;5090669;28;20379;-74
2021/10/20 02:44:09;;;;;;;;;;;15.50;99.90;;;;;;5093179;28;20049;-75
2021/10/20 02:46:36;;;;;;;;;;;15.50;99.90;;;;;;5089956;28;20415;-75
2021/10/20 02:49:04;;;;;;;;;;;15.50;99.90;;;;;;5091759;28;19954;-75
2021/10/20 02:51:32;;;;;;;;;;;15.50;99.90;;;;;;5090678;28;19957;-75
2021/10/20 02:53:59;;;;;;;;;;;15.50;99.90;;;;;;5096168;28;20036;-75
2021/10/20 02:56:25;;;;;;;;;;;15.50;99.90;;;;;;5098013;28;19973;-75
2021/10/20 02:58:52;;;;;;;;;;;15.50;99.90;;;;;;5088852;28;20078;-75
2021/10/20 03:01:19;;;;;;;;;;;15.50;99.90;;;;;;5086331;28;20432;-74
2021/10/20 03:03:46;;;;;;;;;;;15.40;99.90;;;;;;5085892;28;19952;-74
2021/10/20 03:06:14;;;;;;;;;;;15.50;99.90;;;;;;5087417;28;19958;-74
2021/10/20 03:08:41;;;;;;;;;;;15.50;99.90;;;;;;5093580;28;19958;-76
2021/10/20 03:11:08;;;;;;;;;;;15.50;99.90;;;;;;5088063;28;19961;-75
2021/10/20 03:13:34;;;;;;;;;;;15.50;99.90;;;;;;5093079;28;20336;-74
2021/10/20 03:16:01;;;;;;;;;;;15.40;99.90;;;;;;5081381;28;19959;-75
2021/10/20 03:18:28;;;;;;;;;;;15.40;99.90;;;;;;5087161;28;19979;-74
2021/10/20 03:20:54;;;;;;;;;;;15.50;99.90;;;;;;5088926;28;19962;-75
2021/10/20 03:23:22;;;;;;;;;;;15.50;99.90;;;;;;5092566;28;20058;-75
2021/10/20 03:25:49;;;;;;;;;;;15.50;99.90;;;;;;5090947;28;20065;-75
2021/10/20 03:28:16;;;;;;;;;;;15.40;99.90;;;;;;5087708;28;19962;-75
2021/10/20 03:30:42;;;;;;;;;;;15.40;99.90;;;;;;5092225;28;19956;-75
2021/10/20 03:33:09;;;;;;;;;;;15.40;99.90;;;;;;5087657;28;19962;-75
2021/10/20 03:35:36;;;;;;;;;;;15.40;99.90;;;;;;5084256;28;19977;-75
2021/10/20 03:38:05;;;;;;;;;;;15.40;99.90;;;;;;5090414;28;20328;-75
2021/10/20 03:40:33;;;;;;;;;;;15.40;99.90;;;;;;5094285;28;20419;-76
2021/10/20 03:43:00;;;;;;;;;;;15.40;99.90;;;;;;5087513;28;20420;-75
2021/10/20 03:45:27;;;;;;;;;;;15.40;99.90;;;;;;5086615;28;19959;-75
2021/10/20 03:47:53;;;;;;;;;;;15.40;99.90;;;;;;5087948;28;19959;-75
2021/10/20 03:50:20;;;;;;;;;;;15.30;99.90;;;;;;5095535;28;19960;-75
2021/10/20 03:52:47;;;;;;;;;;;15.30;99.90;;;;;;5085523;28;19951;-75
2021/10/20 03:55:13;;;;;;;;;;;15.20;99.90;;;;;;5077323;28;19970;-75
2021/10/20 03:57:42;;;;;;;;;;;15.20;99.90;;;;;;5095944;28;19961;-75
2021/10/20 04:00:10;;;;;;;;;;;15.20;99.90;;;;;;5086111;28;19954;-75
2021/10/20 04:02:42;;;;;;;;;;;15.10;99.90;;;;;;5095608;28;20004;-73
2021/10/20 04:05:09;;;;;;;;;;;15.20;99.90;;;;;;5084064;28;20414;-74
2021/10/20 04:07:35;;;;;;;;;;;15.10;99.90;;;;;;5091276;28;20443;-74
2021/10/20 04:10:02;;;;;;;;;;;15.10;99.90;;;;;;5087036;28;19962;-74
2021/10/20 04:12:29;;;;;;;;;;;15.10;99.90;;;;;;5095913;28;19962;-74
2021/10/20 04:14:57;;;;;;;;;;;15.10;99.90;;;;;;5089068;28;19976;-75
2021/10/20 04:17:23;;;;;;;;;;;15.10;99.90;;;;;;5089176;28;19959;-75
2021/10/20 04:19:50;;;;;;;;;;;15.20;99.90;;;;;;5087241;28;20038;-74
2021/10/20 04:22:16;;;;;;;;;;;15.20;99.90;;;;;;5092232;28;20011;-72
2021/10/20 04:24:43;;;;;;;;;;;15.20;99.90;;;;;;5089350;28;19965;-71
2021/10/20 04:27:10;;;;;;;;;;;15.20;99.90;;;;;;5097198;28;19983;-72
2021/10/20 04:29:36;;;;;;;;;;;15.10;99.90;;;;;;5088189;28;20453;-71
2021/10/20 04:32:05;;;;;;;;;;;15.20;99.90;;;;;;5098013;28;19949;-72
2021/10/20 04:34:31;;;;;;;;;;;15.20;99.90;;;;;;5090780;28;19974;-72
2021/10/20 04:36:58;;;;;;;;;;;15.20;99.90;;;;;;5085275;28;19953;-71
2021/10/20 04:39:25;;;;;;;;;;;15.20;99.90;;;;;;5088836;28;19962;-72
2021/10/20 04:41:51;;;;;;;;;;;15.20;99.90;;;;;;5089044;28;20041;-72
2021/10/20 04:44:18;;;;;;;;;;;15.30;99.90;;;;;;5091781;28;19959;-71
2021/10/20 04:46:45;;;;;;;;;;;15.30;99.90;;;;;;5092678;28;19957;-72
2021/10/20 04:49:13;;;;;;;;;;;15.40;99.90;;;;;;5079199;28;20438;-71
2021/10/20 04:51:39;;;;;;;;;;;15.30;99.90;;;;;;5085782;28;19958;-72
2021/10/20 04:54:06;;;;;;;;;;;15.30;99.90;;;;;;5089644;28;20307;-72
2021/10/20 04:56:33;;;;;;;;;;;15.30;99.90;;;;;;5092428;28;19965;-72
2021/10/20 04:58:59;;;;;;;;;;;15.30;99.90;;;;;;5088770;28;20360;-71
2021/10/20 05:01:26;;;;;;;;;;;15.30;99.90;;;;;;5093181;28;20378;-71
2021/10/20 05:03:52;;;;;;;;;;;15.30;99.90;;;;;;5088289;28;20386;-72
2021/10/20 05:06:21;;;;;;;;;;;15.30;99.90;;;;;;5095871;28;19923;-71
2021/10/20 05:08:47;;;;;;;;;;;15.30;99.90;;;;;;5091988;28;19973;-71
2021/10/20 05:11:14;;;;;;;;;;;15.40;99.90;;;;;;5088522;28;20383;-71
2021/10/20 05:13:40;;;;;;;;;;;15.40;99.90;;;;;;5091042;28;20471;-71
2021/10/20 05:16:07;;;;;;;;;;;15.40;99.90;;;;;;5086173;28;20461;-72
2021/10/20 05:18:34;;;;;;;;;;;15.40;99.90;;;;;;5087011;28;19952;-72
2021/10/20 05:21:00;;;;;;;;;;;15.40;99.90;;;;;;5090341;28;20272;-72
2021/10/20 05:23:28;;;;;;;;;;;15.30;99.90;;;;;;5091077;28;20054;-72
2021/10/20 05:25:55;;;;;;;;;;;15.30;99.90;;;;;;5092955;28;20055;-71
2021/10/20 05:28:22;;;;;;;;;;;15.30;99.90;;;;;;5086986;28;19964;-72
2021/10/20 05:30:48;;;;;;;;;;;15.30;99.90;;;;;;5092346;28;19930;-72
2021/10/20 05:33:15;;;;;;;;;;;15.20;99.90;;;;;;5093783;28;20006;-72
2021/10/20 05:35:42;;;;;;;;;;;15.20;99.90;;;;;;5095190;28;20015;-72
2021/10/20 05:38:08;;;;;;;;;;;15.20;99.90;;;;;;5098837;28;20072;-72
2021/10/20 05:40:37;;;;;;;;;;;15.20;99.90;;;;;;5093040;28;19964;-72
2021/10/20 05:43:04;;;;;;;;;;;15.20;99.90;;;;;;5086426;28;19960;-73
2021/10/20 05:45:30;;;;;;;;;;;15.20;99.90;;;;;;5094979;28;19957;-72
2021/10/20 05:47:57;;;;;;;;;;;15.20;99.90;;;;;;5087670;28;19963;-72
2021/10/20 05:50:24;;;;;;;;;;;15.20;99.90;;;;;;5091883;28;19995;-72
2021/10/20 05:52:51;;;;;;;;;;;15.20;99.90;;;;;;5090055;28;19961;-72
2021/10/20 05:55:17;;;;;;;;;;;15.20;99.90;;;;;;5093932;28;20058;-72
2021/10/20 05:57:45;;;;;;;;;;;15.20;99.90;;;;;;5087779;28;20739;-72
2021/10/20 06:00:15;;;;;;;;;;;15.20;99.90;;;;;;5091367;28;19959;-73
2021/10/20 06:02:42;;;;;;;;;;;15.20;99.90;;;;;;5081715;28;20431;-72
2021/10/20 06:05:09;;;;;;;;;;;15.30;99.90;;;;;;5091746;28;19961;-71
2021/10/20 06:07:39;;;;;;;;;;;15.30;99.90;;;;;;5091620;28;20037;-71
2021/10/20 06:10:06;;;;;;;;;;;15.30;99.90;;;;;;5085709;28;19966;-72
2021/10/20 06:12:33;;;;;;;;;;;15.20;99.90;;;;;;5078521;28;20363;-72
2021/10/20 06:15:01;;;;;;;;;;;15.30;99.90;;;;;;5074961;28;19983;-72
2021/10/20 06:17:27;;;;;;;;;;;15.30;99.90;;;;;;5091217;28;20062;-72
2021/10/20 06:19:54;;;;;;;;;;;15.30;99.90;;;;;;5095073;28;19978;-73
2021/10/20 06:22:21;;;;;;;;;;;15.30;99.90;;;;;;5097098;28;19958;-70
2021/10/20 06:24:47;;;;;;;;;;;15.30;99.90;;;;;;5085942;28;19954;-69
2021/10/20 06:27:14;;;;;;;;;;;15.30;99.90;;;;;;5096134;28;19989;-69
2021/10/20 06:29:41;;;;;;;;;;;15.30;99.90;;;;;;5084661;28;19966;-72
2021/10/20 06:32:08;;;;;;;;;;;15.30;99.90;;;;;;5091721;28;20054;-71
2021/10/20 06:34:35;;;;;;;;;;;15.30;99.90;;;;;;5084355;28;19969;-72
2021/10/20 06:37:02;;;;;;;;;;;15.40;99.90;;;;;;5086554;28;19970;-71
2021/10/20 06:39:28;;;;;;;;;;;15.40;99.90;;;;;;5080996;28;19962;-73
2021/10/20 06:41:55;;;;;;;;;;;15.40;99.90;;;;;;5068079;28;19952;-73
2021/10/20 06:44:24;;;;;;;;;;;15.30;99.90;;;;;;5079217;28;20018;-73
2021/10/20 06:46:51;;;;;;;;;;;15.10;99.90;;;;;;5083980;28;19974;-73
2021/10/20 06:49:20;;;;;;;;;;;15.00;99.90;;;;;;5081069;28;19961;-72
2021/10/20 06:51:47;;;;;;;;;;;14.90;99.90;;;;;;5089322;28;19987;-73
2021/10/20 06:54:18;;;;;;;;;;;14.90;99.90;;;;;;5083328;28;19958;-72
2021/10/20 06:56:45;;;;;;;;;;;14.80;99.90;;;;;;5083120;28;20056;-73
2021/10/20 06:59:12;;;;;;;;;;;14.80;99.90;;;;;;5085945;28;19985;-73
2021/10/20 07:01:38;;;;;;;;;;;14.80;99.90;;;;;;5083379;28;19962;-72
2021/10/20 07:04:05;;;;;;;;;;;14.80;99.90;;;;;;5083966;28;19964;-73
2021/10/20 07:06:33;;;;;;;;;;;14.80;99.90;;;;;;5087590;28;20402;-71
2021/10/20 07:09:00;;;;;;;;;;;14.80;99.90;;;;;;5089801;28;19924;-72
2021/10/20 07:11:26;;;;;;;;;;;14.90;99.90;;;;;;5091314;28;20030;-72
2021/10/20 07:13:53;;;;;;;;;;;14.90;99.90;;;;;;5083785;28;20023;-74
2021/10/20 07:16:20;;;;;;;;;;;14.90;99.90;;;;;;5080022;28;20410;-73
2021/10/20 07:18:46;;;;;;;;;;;14.90;99.90;;;;;;5088952;28;19960;-72
2021/10/20 07:21:13;;;;;;;;;;;14.90;99.90;;;;;;5078713;28;20115;-73
2021/10/20 07:23:41;;;;;;;;;;;14.90;99.90;;;;;;5085196;28;19968;-73
2021/10/20 07:26:08;;;;;;;;;;;14.90;99.90;;;;;;5094955;28;19961;-72
2021/10/20 07:28:34;;;;;;;;;;;14.90;99.90;;;;;;5093378;28;20325;-73
2021/10/20 07:31:01;;;;;;;;;;;14.90;99.90;;;;;;5087785;28;19965;-74
2021/10/20 07:33:28;;;;;;;;;;;14.90;99.90;;;;;;5079875;28;19958;-72
2021/10/20 07:35:54;;;;;;;;;;;14.90;99.90;;;;;;5088644;28;19976;-72
2021/10/20 07:38:22;;;;;;;;;;;15.00;99.90;;;;;;5090966;28;19963;-72
2021/10/20 07:40:50;;;;;;;;;;;15.10;99.90;;;;;;5088827;28;19976;-72
2021/10/20 07:43:16;;;;;;;;;;;15.10;99.90;;;;;;5090881;28;20015;-72
2021/10/20 07:45:43;;;;;;;;;;;15.20;99.90;;;;;;5089757;28;20004;-73
2021/10/20 07:48:10;;;;;;;;;;;15.30;99.90;;;;;;5091468;28;19980;-73
2021/10/20 07:50:37;;;;;;;;;;;15.30;99.90;;;;;;5093069;28;20466;-73
2021/10/20 07:53:04;;;;;;;;;;;15.40;99.90;;;;;;5093989;28;19999;-73
2021/10/20 07:55:32;;;;;;;;;;;15.40;99.90;;;;;;5094708;28;19988;-75
2021/10/20 07:58:00;;;;;;;;;;;15.40;99.90;;;;;;5093911;28;19965;-73
2021/10/20 08:00:27;;;;;;;;;;;15.50;99.90;;;;;;5088480;28;20086;-73
2021/10/20 08:02:54;;;;;;;;;;;15.40;99.90;;;;;;5086702;28;19966;-73
2021/10/20 08:05:21;;;;;;;;;;;15.40;99.90;;;;;;5092652;28;19960;-73
2021/10/20 08:07:48;;;;;;;;;;;15.80;99.90;;;;;;5099685;28;20429;-72
2021/10/20 08:10:15;;;;;;;;;;;16.70;99.90;;;;;;5093286;28;19956;-73
2021/10/20 08:12:42;;;;;;;;;;;16.50;99.90;;;;;;5087973;28;19966;-72
2021/10/20 08:15:10;;;;;;;;;;;16.80;99.90;;;;;;5090418;28;20457;-74
2021/10/20 08:17:37;;;;;;;;;;;18.20;99.90;;;;;;5087525;28;20395;-74
2021/10/20 08:20:04;;;;;;;;;;;19.00;99.90;;;;;;5092790;28;19958;-72
2021/10/20 08:22:32;;;;;;;;;;;19.40;99.90;;;;;;5089017;28;19974;-73
2021/10/20 08:24:58;;;;;;;;;;;19.30;99.90;;;;;;5089152;28;19957;-74
2021/10/20 08:27:25;;;;;;;;;;;19.10;99.90;;;;;;5094957;28;20007;-74
2021/10/20 08:29:52;;;;;;;;;;;18.40;99.90;;;;;;5091866;28;20272;-72
2021/10/20 08:32:20;;;;;;;;;;;17.40;99.90;;;;;;5094319;28;20038;-72
2021/10/20 08:34:48;;;;;;;;;;;17.00;99.90;;;;;;5097375;28;20003;-74
2021/10/20 08:37:15;;;;;;;;;;;16.90;99.90;;;;;;5092459;28;19989;-77
2021/10/20 08:39:41;;;;;;;;;;;16.90;99.90;;;;;;5088766;28;19953;-74
2021/10/20 08:42:08;;;;;;;;;;;16.70;99.90;;;;;;5091086;28;19955;-74
2021/10/20 08:44:35;;;;;;;;;;;16.60;99.90;;;;;;5091790;28;19957;-69
2021/10/20 08:47:03;;;;;;;;;;;16.50;99.90;;;;;;5087914;28;19976;-71
2021/10/20 08:49:32;;;;;;;;;;;16.50;99.90;;;;;;5092999;28;20419;-72
2021/10/20 08:51:59;;;;;;;;;;;16.40;99.90;;;;;;5095447;28;20379;-73
2021/10/20 08:54:26;;;;;;;;;;;16.50;99.90;;;;;;5092977;28;20007;-73
2021/10/20 08:56:52;;;;;;;;;;;16.50;99.90;;;;;;5092550;28;20027;-73
2021/10/20 08:59:21;;;;;;;;;;;16.50;99.90;;;;;;5092840;28;19931;-73
2021/10/20 09:01:48;;;;;;;;;;;16.60;99.90;;;;;;5094440;28;19931;-74
2021/10/20 09:04:20;;;;;;;;;;;16.80;99.90;;;;;;5093892;28;20023;-75
2021/10/20 09:06:48;;;;;;;;;;;17.10;99.90;;;;;;5088389;28;19931;-72
2021/10/20 09:09:16;;;;;;;;;;;17.10;99.90;;;;;;5090674;28;19935;-73
2021/10/20 09:11:43;;;;;;;;;;;17.10;99.90;;;;;;5094583;28;19969;-74
2021/10/20 09:14:11;;;;;;;;;;;17.10;99.90;;;;;;5093981;28;19944;-75
2021/10/20 09:16:39;;;;;;;;;;;17.50;99.90;;;;;;5094364;28;19985;-74
2021/10/20 09:19:11;;;;;;;;;;;17.50;99.90;;;;;;5089121;28;19967;-73
2021/10/20 09:21:48;;;;;;;;;;;17.50;99.90;;;;;;5085374;28;19981;-74
2021/10/20 09:24:14;;;;;;;;;;;17.50;99.90;;;;;;5086446;28;20075;-73
2021/10/20 09:26:41;;;;;;;;;;;17.40;99.90;;;;;;5090981;28;20000;-71
2021/10/20 09:29:19;;;;;;;;;;;17.40;99.90;;;;;;5091358;28;19928;-75
2021/10/20 09:31:45;;;;;;;;;;;17.30;99.90;;;;;;5094076;28;20404;-75
2021/10/20 09:34:12;;;;;;;;;;;17.20;99.90;;;;;;5091133;28;19999;-75
2021/10/20 09:36:39;;;;;;;;;;;17.10;99.90;;;;;;5085999;28;19928;-74
2021/10/20 09:39:09;;;;;;;;;;;17.10;99.90;;;;;;5089178;28;19997;-74
2021/10/20 09:41:35;;;;;;;;;;;17.00;99.90;;;;;;5095210;28;19934;-78
2021/10/20 09:44:02;;;;;;;;;;;17.10;99.90;;;;;;5091769;28;19930;-75
2021/10/20 09:46:33;;;;;;;;;;;17.20;99.90;;;;;;5091168;28;19930;-77
2021/10/20 09:49:00;;;;;;;;;;;17.20;99.90;;;;;;5088507;28;20051;-77
2021/10/20 09:51:27;;;;;;;;;;;17.30;99.90;;;;;;5076553;28;19963;-75
2021/10/20 09:53:54;;;;;;;;;;;17.30;99.90;;;;;;5090072;28;19955;-77
2021/10/20 09:56:23;;;;;;;;;;;17.50;99.90;;;;;;5097925;28;20385;-77
2021/10/20 09:58:53;;;;;;;;;;;17.50;99.90;;;;;;5093900;28;19995;-77
2021/10/20 10:01:20;;;;;;;;;;;17.50;99.90;;;;;;5092006;28;19954;-75
2021/10/20 10:03:47;;;;;;;;;;;17.50;99.90;;;;;;5098338;28;19956;-76
2021/10/20 10:06:14;;;;;;;;;;;17.50;99.90;;;;;;5089123;28;19988;-75
2021/10/20 10:08:41;;;;;;;;;;;17.60;99.90;;;;;;5085198;28;20048;-78
2021/10/20 10:11:07;;;;;;;;;;;17.60;99.90;;;;;;5091600;28;20073;-75
2021/10/20 10:13:37;;;;;;;;;;;17.40;99.90;;;;;;5091442;28;19953;-74
2021/10/20 10:16:05;;;;;;;;;;;17.30;99.90;;;;;;5088380;28;20487;-74
2021/10/20 10:18:32;;;;;;;;;;;17.20;99.90;;;;;;5083352;28;19954;-76
2021/10/20 10:20:59;;;;;;;;;;;17.10;99.90;;;;;;5084367;28;20424;-74
2021/10/20 10:23:27;;;;;;;;;;;17.10;99.90;;;;;;5090018;28;19975;-76
2021/10/20 10:26:05;;;;;;;;;;;17.00;99.90;;;;;;5087895;28;19948;-77
2021/10/20 10:28:39;;;;;;;;;;;17.10;99.90;;;;;;5086049;28;20051;-74
2021/10/20 10:31:13;;;;;;;;;;;17.10;99.90;;;;;;5091580;28;19963;-79
2021/10/20 10:33:51;;;;;;;;;;;17.10;99.90;;;;;;5086022;28;19958;-76
2021/10/20 10:36:20;;;;;;;;;;;17.20;99.90;;;;;;5091712;28;19969;-75
2021/10/20 10:38:52;;;;;;;;;;;17.20;99.90;;;;;;5098274;28;20043;-75
2021/10/20 10:41:20;;;;;;;;;;;17.20;99.90;;;;;;5087968;28;20060;-77
2021/10/20 10:44:07;;;;;;;;;;;17.20;99.90;;;;;;5087674;28;20271;-74
2021/10/20 10:46:40;;;;;;;;;;;17.30;99.90;;;;;;5085424;28;19977;-74
2021/10/20 10:49:22;;;;;;;;;;;17.30;99.90;;;;;;5087860;28;19932;-75
2021/10/20 10:52:02;;;;;;;;;;;17.30;99.90;;;;;;5092099;28;20348;-75
2021/10/20 10:54:32;;;;;;;;;;;17.40;99.90;;;;;;5088523;28;19964;-75
2021/10/20 10:57:10;;;;;;;;;;;17.40;99.90;;;;;;5093552;28;19931;-74
2021/10/20 10:59:36;;;;;;;;;;;17.40;99.90;;;;;;5087707;28;20975;-75
2021/10/20 11:02:26;;;;;;;;;;;17.50;99.90;;;;;;5090663;28;20059;-74
2021/10/20 11:04:57;;;;;;;;;;;17.50;99.90;;;;;;5081912;28;19968;-74
2021/10/20 11:07:28;;;;;;;;;;;17.40;99.90;;;;;;5095623;28;19955;-74
2021/10/20 11:09:59;;;;;;;;;;;17.60;99.90;;;;;;5084208;28;19947;-77
2021/10/20 11:12:27;;;;;;;;;;;17.70;99.90;;;;;;5074981;28;20694;-78
2021/10/20 11:14:56;;;;;;;;;;;17.80;99.90;;;;;;5089595;28;19956;-75
2021/10/20 11:17:28;;;;;;;;;;;17.80;99.90;;;;;;5100012;28;20390;-75
2021/10/20 11:19:58;;;;;;;;;;;17.70;99.90;;;;;;5068396;28;19954;-76
2021/10/20 11:22:32;;;;;;;;;;;17.70;99.90;;;;;;5081415;28;19978;-75
2021/10/20 11:25:00;;;;;;;;;;;17.80;99.90;;;;;;5083295;28;19953;-74
2021/10/20 11:27:28;;;;;;;;;;;17.90;99.90;;;;;;5088216;28;20005;-76
2021/10/20 11:29:58;;;;;;;;;;;18.00;99.90;;;;;;5086066;28;19985;-76
2021/10/20 11:32:31;;;;;;;;;;;18.00;99.90;;;;;;5089781;28;20025;-75
2021/10/20 11:34:58;;;;;;;;;;;17.90;99.90;;;;;;5080120;28;20093;-75
2021/10/20 11:37:26;;;;;;;;;;;17.90;99.90;;;;;;5079251;28;19975;-78
2021/10/20 11:39:58;;;;;;;;;;;17.80;99.90;;;;;;5086392;28;20001;-76
2021/10/20 11:42:27;;;;;;;;;;;17.70;99.90;;;;;;5081817;28;19949;-75
2021/10/20 11:45:06;;;;;;;;;;;17.60;99.90;;;;;;5077921;28;20049;-78
2021/10/20 11:47:39;;;;;;;;;;;17.80;99.90;;;;;;5080555;28;19964;-78
2021/10/20 11:50:16;;;;;;;;;;;17.90;99.90;;;;;;5079188;28;20297;-77
2021/10/20 11:52:44;;;;;;;;;;;18.00;99.90;;;;;;5087776;28;20408;-74
2021/10/20 11:55:11;;;;;;;;;;;18.00;99.90;;;;;;5084615;28;19954;-77
2021/10/20 11:57:42;;;;;;;;;;;18.00;99.90;;;;;;5094067;28;20048;-76
2021/10/20 12:00:10;;;;;;;;;;;17.90;99.90;;;;;;5091187;28;20446;-74
2021/10/20 12:02:38;;;;;;;;;;;17.80;99.90;;;;;;5088436;28;20070;-76
2021/10/20 12:05:05;;;;;;;;;;;17.80;99.90;;;;;;5092475;28;20042;-76
2021/10/20 12:07:32;;;;;;;;;;;17.80;99.90;;;;;;5088973;28;20054;-79
2021/10/20 12:09:59;;;;;;;;;;;17.70;99.90;;;;;;5098582;28;20007;-81
2021/10/20 12:12:26;;;;;;;;;;;17.80;99.90;;;;;;5091908;28;20067;-76
2021/10/20 12:14:55;;;;;;;;;;;17.80;99.90;;;;;;5089351;28;20133;-78
2021/10/20 12:17:22;;;;;;;;;;;17.80;99.90;;;;;;5094756;28;20048;-77
2021/10/20 12:19:50;;;;;;;;;;;17.90;99.90;;;;;;5091610;28;20416;-76
2021/10/20 12:22:17;;;;;;;;;;;17.90;99.90;;;;;;5087632;28;19999;-76
2021/10/20 12:24:45;;;;;;;;;;;17.90;99.90;;;;;;5090934;28;19949;-77
2021/10/20 12:27:12;;;;;;;;;;;18.00;99.90;;;;;;5084579;28;19961;-77
2021/10/20 12:29:40;;;;;;;;;;;18.10;99.90;;;;;;5084715;28;20365;-78
2021/10/20 12:32:07;;;;;;;;;;;18.20;99.90;;;;;;5079092;28;19965;-75
2021/10/20 12:34:34;;;;;;;;;;;18.30;99.90;;;;;;5091356;28;20092;-75
2021/10/20 12:37:02;;;;;;;;;;;18.20;99.90;;;;;;5088053;28;19979;-77
2021/10/20 12:39:31;;;;;;;;;;;18.10;99.90;;;;;;5075317;28;19958;-75
2021/10/20 12:42:01;;;;;;;;;;;18.10;99.90;;;;;;5086715;28;19976;-77
2021/10/20 12:44:31;;;;;;;;;;;18.10;99.90;;;;;;5086782;28;19977;-73
2021/10/20 12:46:58;;;;;;;;;;;18.20;99.90;;;;;;5091282;28;19958;-74
2021/10/20 12:49:33;;;;;;;;;;;18.30;99.90;;;;;;5090196;28;19972;-74
2021/10/20 12:51:59;;;;;;;;;;;18.30;99.90;;;;;;5095178;28;20505;-74
2021/10/20 12:54:29;;;;;;;;;;;18.20;99.90;;;;;;5082372;28;19958;-76
2021/10/20 12:56:56;;;;;;;;;;;18.30;99.90;;;;;;5086158;28;20517;-77
2021/10/20 12:59:26;;;;;;;;;;;18.20;99.90;;;;;;5088360;28;20004;-75
2021/10/20 13:01:52;;;;;;;;;;;18.20;99.90;;;;;;5090023;28;20041;-76
2021/10/20 13:04:20;;;;;;;;;;;18.20;99.90;;;;;;5083954;28;19999;-79
2021/10/20 13:06:47;;;;;;;;;;;18.20;99.90;;;;;;5084339;28;20055;-78
2021/10/20 13:09:15;;;;;;;;;;;18.20;99.90;;;;;;5089434;28;20060;-78
2021/10/20 13:11:43;;;;;;;;;;;18.20;99.90;;;;;;5089749;28;19992;-78
2021/10/20 13:14:10;;;;;;;;;;;18.20;99.90;;;;;;5089493;28;20370;-77
2021/10/20 13:16:37;;;;;;;;;;;18.20;99.90;;;;;;5091313;28;20054;-77
2021/10/20 13:19:04;;;;;;;;;;;18.20;99.90;;;;;;5098592;28;20057;-76
2021/10/20 13:21:30;;;;;;;;;;;18.20;99.90;;;;;;5087880;28;20425;-75
2021/10/20 13:23:57;;;;;;;;;;;18.20;99.90;;;;;;5090937;28;19990;-75
2021/10/20 13:26:24;;;;;;;;;;;18.20;99.90;;;;;;5088710;28;20033;-78
2021/10/20 13:28:52;;;;;;;;;;;18.30;99.90;;;;;;5094511;28;20421;-78
2021/10/20 13:31:19;;;;;;;;;;;18.30;99.90;;;;;;5081949;28;20047;-78
2021/10/20 13:33:45;;;;;;;;;;;18.30;99.90;;;;;;5075250;28;19949;-79
2021/10/20 13:36:13;;;;;;;;;;;18.30;99.90;;;;;;5089038;28;19980;-77
2021/10/20 13:38:41;;;;;;;;;;;18.20;99.90;;;;;;5096117;28;19970;-81
2021/10/20 13:41:08;;;;;;;;;;;18.20;99.90;;;;;;5089863;28;19973;-84
2021/10/20 13:43:38;;;;;;;;;;;18.20;99.90;;;;;;5094206;28;20058;-81
2021/10/20 13:46:07;;;;;;;;;;;18.30;99.90;;;;;;5081463;28;19965;-75
2021/10/20 13:48:33;;;;;;;;;;;18.30;99.90;;;;;;5087294;28;20004;-76
2021/10/20 13:51:00;;;;;;;;;;;18.20;99.90;;;;;;5090191;28;19954;-76
2021/10/20 13:53:27;;;;;;;;;;;18.20;99.90;;;;;;5086058;28;20037;-75
2021/10/20 13:55:53;;;;;;;;;;;18.20;99.90;;;;;;5091807;28;20406;-77
2021/10/20 13:58:20;;;;;;;;;;;18.20;99.90;;;;;;5089639;28;20069;-76
2021/10/20 14:00:47;;;;;;;;;;;18.20;99.90;;;;;;5097809;28;20334;-77
2021/10/20 14:03:15;;;;;;;;;;;18.20;99.90;;;;;;5094560;28;20007;-76
2021/10/20 14:05:44;;;;;;;;;;;18.20;99.90;;;;;;5084479;28;20055;-78
2021/10/20 14:08:11;;;;;;;;;;;18.10;99.90;;;;;;5085883;28;19952;-78
2021/10/20 14:10:45;;;;;;;;;;;18.10;99.90;;;;;;5102526;28;20037;-77
2021/10/20 14:13:15;;;;;;;;;;;18.10;99.90;;;;;;5084147;28;20317;-76
2021/10/20 14:15:45;;;;;;;;;;;18.00;99.90;;;;;;5090044;28;19949;-78
2021/10/20 14:18:14;;;;;;;;;;;18.00;99.90;;;;;;5095117;28;19976;-79
2021/10/20 14:20:43;;;;;;;;;;;18.00;99.90;;;;;;5094808;28;19959;-78